気象予報士の航空気象 雷とどろき、霧に覆われる

*All archives   *Admin

スポンサーサイト

上記の広告は1ヶ月以上更新のないブログに表示されています。
新しい記事を書く事で広告が消せます。
--:--  |  スポンサー広告  |  EDIT  |  Top↑

2010.05.20 (Thu)

雷とどろき、霧に覆われる

RJAA 201118Z 33009KT 2500 TSRA BR FEW001 SCT002 BKN004 SCT030CB 19/19 Q1009 RMK 1ST001 4ST002 7ST004 3CB030 A2979 FBL TS OHD MOV E CB 20KM SW MOV E


夕方から夜にかけて、関東地方を雷雲が通っていきました。


その後、晴れ。


そうすると、明日は成田の霧が気になります。


明日は、関東で真夏日になるとか。


カラっとした晴れになるでしょう。



 
ブログランキングに参加しています。
にほんブログ村 環境ブログ 天気・気象学へ
にほんブログ村
応援クリックをおねがします。


以下、アフィリエイトサイトです。



スポンサーサイト
23:06  |  気象・天気  |  TB(0)  |  CM(0)  |  EDIT  |  Top↑

コメントを投稿する


 管理者だけに表示  (非公開コメント投稿可能)

▲PageTop

この記事のトラックバックURL

→http://weathereucalyptus.blog115.fc2.com/tb.php/491-fd8f1042
この記事にトラックバックする(FC2ブログユーザー)

この記事へのトラックバック

▲PageTop

 | BLOGTOP | 
上記広告は1ヶ月以上更新のないブログに表示されています。新しい記事を書くことで広告を消せます。